Time;durP1;ratioP1;P1;durP2;ratioP2;P2;SDS_P1;SDS_P2;PMS_P1;PMS_P2;Temp;Humidity;BMP_temperature;BMP_pressure;BME280_temperature;BME280_humidity;BME280_pressure;Samples;Min_cycle;Max_cycle;Signal;HPM_P1;HPM_P2
2022/02/04 00:04:09;;;;;;;40.47;25.63;;;;;;;6.64;97.05;101006.75;5072927;28;20181;-74
2022/02/04 00:08:37;;;;;;;43.80;26.77;;;;;;;6.62;97.17;101000.72;5071346;28;20517;-74
2022/02/04 00:20:14;;;;;;;42.13;26.90;;;;;;;6.62;96.54;100995.63;5072763;28;20638;-74
2022/02/04 00:22:37;;;;;;;43.73;26.80;;;;;;;6.63;95.99;100993.16;5072784;28;20686;-74
2022/02/04 00:24:55;;;;;;;44.50;26.97;;;;;;;6.61;96.53;100993.91;5072113;28;20561;-74
2022/02/04 00:27:24;;;;;;;45.10;27.63;;;;;;;6.60;96.94;100985.41;5071090;28;20220;-74
2022/02/04 00:30:04;;;;;;;43.40;27.77;;;;;;;6.58;96.67;100992.09;5070774;28;20262;-74
2022/02/04 00:32:32;;;;;;;43.30;26.63;;;;;;;6.60;96.13;100993.06;5072451;28;20189;-74
2022/02/04 00:35:14;;;;;;;41.77;27.10;;;;;;;6.60;96.77;100995.59;5070948;28;20208;-74
2022/02/04 00:37:56;;;;;;;41.17;26.43;;;;;;;6.61;95.72;101001.53;5072300;28;20272;-73
2022/02/04 00:40:23;;;;;;;38.73;24.57;;;;;;;6.60;96.53;100998.13;5072166;28;20235;-73
2022/02/04 00:42:51;;;;;;;44.30;28.33;;;;;;;6.58;96.75;100999.75;5070867;28;20647;-75
2022/02/04 00:45:23;;;;;;;47.37;27.20;;;;;;;6.59;96.44;100996.38;5072075;28;20204;-74
2022/02/04 00:47:55;;;;;;;44.37;26.53;;;;;;;6.59;96.09;100996.38;5072009;28;20239;-73
2022/02/04 00:50:37;;;;;;;43.50;28.20;;;;;;;6.58;95.82;100996.34;5072010;28;20213;-74
2022/02/04 00:53:15;;;;;;;42.93;26.67;;;;;;;6.56;96.27;100987.78;5071268;28;20276;-74
2022/02/04 00:55:59;;;;;;;41.00;27.30;;;;;;;6.56;96.38;100987.78;5071881;28;20177;-73
2022/02/04 01:26:04;;;;;;;47.30;28.97;;;;;;;6.57;96.27;100992.03;5071417;28;20204;-73
2022/02/04 01:28:31;;;;;;;45.40;25.47;;;;;;;6.57;96.47;100989.50;5071306;28;20674;-73
2022/02/04 01:30:57;;;;;;;42.93;26.10;;;;;;;6.55;96.67;100992.00;5071321;28;20257;-74
2022/02/04 01:33:23;;;;;;;50.80;29.03;;;;;;;6.52;96.95;100981.72;5071282;28;20654;-74
2022/02/04 01:35:49;;;;;;;50.83;29.23;;;;;;;6.51;96.86;100986.75;5071210;28;20295;-73
2022/02/04 01:38:14;;;;;;;50.27;29.77;;;;;;;6.49;97.23;100989.22;5071098;28;20547;-74
2022/02/04 01:40:40;;;;;;;51.37;29.80;;;;;;;6.51;97.96;100995.25;5069716;28;20205;-73
2022/02/04 01:43:06;;;;;;;53.77;28.80;;;;;;;6.51;97.71;100985.06;5069734;28;20181;-74
2022/02/04 01:45:31;;;;;;;52.97;30.07;;;;;;;6.49;97.86;100984.13;5069644;28;20666;-73
2022/02/04 01:47:56;;;;;;;51.83;28.73;;;;;;;6.49;98.15;100984.13;5069497;28;20192;-74
2022/02/04 01:50:23;;;;;;;55.13;30.50;;;;;;;6.50;98.08;100974.84;5070856;28;20600;-74
2022/02/04 01:52:49;;;;;;;56.77;30.90;;;;;;;6.52;97.47;100983.38;5069078;28;20189;-74
2022/02/04 01:55:15;;;;;;;54.77;30.10;;;;;;;6.50;98.39;100974.84;5070804;28;20238;-74
2022/02/04 01:57:40;;;;;;;54.43;31.00;;;;;;;6.51;98.25;100980.00;5070593;28;20177;-73
2022/02/04 02:00:06;;;;;;;55.80;29.87;;;;;;;6.49;98.53;100978.19;5070417;28;20209;-74
2022/02/04 02:02:32;;;;;;;56.17;31.17;;;;;;;6.49;97.22;100973.97;5070877;28;20185;-74
2022/02/04 02:04:57;;;;;;;50.53;29.20;;;;;;;6.50;98.06;100974.84;5068425;28;20276;-73
2022/02/04 02:07:25;;;;;;;56.87;31.83;;;;;;;6.50;98.62;100969.75;5070402;28;20216;-74
2022/02/04 02:10:05;;;;;;;59.03;32.00;;;;;;;6.49;97.83;100968.88;5068872;28;20224;-74
2022/02/04 02:12:38;;;;;;;51.53;30.37;;;;;;;6.48;98.26;100969.69;5070297;28;20295;-74
2022/02/04 02:15:18;;;;;;;55.33;30.27;;;;;;;6.47;97.74;100965.41;5069016;28;20209;-74
2022/02/04 02:44:31;;;;;;;63.07;34.10;;;;;;;6.45;97.50;100956.84;5068908;28;20284;-74
2022/02/04 02:47:22;;;;;;;57.10;33.03;;;;;;;6.43;98.16;100955.94;5070197;28;20627;-73
2022/02/04 02:50:14;;;;;;;58.37;32.60;;;;;;;6.42;97.97;100951.66;5068147;28;20811;-74
2022/02/04 02:53:00;;;;;;;62.10;33.87;;;;;;;6.46;97.71;100950.97;5060637;28;20197;-74
2022/02/04 02:58:09;;;;;;;59.40;31.83;;;;;;;6.47;97.73;100950.16;5069564;28;20591;-73
2022/02/04 03:00:50;;;;;;;62.87;34.37;;;;;;;6.48;97.63;100951.88;5068283;28;20208;-74
2022/02/04 03:03:17;;;;;;;62.60;34.07;;;;;;;6.48;97.87;100944.25;5068360;28;20180;-73
2022/02/04 03:05:43;;;;;;;59.87;34.70;;;;;;;6.48;97.57;100945.91;5068309;28;20181;-73
2022/02/04 03:08:09;;;;;;;60.10;33.23;;;;;;;6.48;96.97;100945.91;5068141;28;20177;-73
2022/02/04 03:10:35;;;;;;;65.33;33.83;;;;;;;6.46;97.70;100942.47;5069472;28;20207;-73
2022/02/04 03:13:00;;;;;;;67.10;34.43;;;;;;;6.48;97.40;100936.63;5068353;28;20188;-73
2022/02/04 03:15:26;;;;;;;58.17;34.27;;;;;;;6.51;96.92;100930.78;5069381;28;20185;-73
2022/02/04 03:18:19;;;;;;;59.17;33.07;;;;;;;6.51;96.62;100928.25;5069421;28;20189;-73
2022/02/04 03:20:46;;;;;;;55.77;33.20;;;;;;;6.50;97.36;100932.44;5069018;28;20725;-74
2022/02/04 03:23:12;;;;;;;57.80;34.57;;;;;;;6.49;96.99;100930.72;5069267;28;20184;-74
2022/02/04 03:25:41;;;;;;;61.47;35.70;;;;;;;6.49;97.32;100934.97;5069635;28;20544;-73
2022/02/04 03:28:12;;;;;;;63.27;34.67;;;;;;;6.50;96.67;100932.44;5069199;28;20682;-74
2022/02/04 03:30:39;;;;;;;63.93;35.73;;;;;;;6.52;96.91;100912.16;5069258;28;20244;-73
2022/02/04 03:33:06;;;;;;;58.80;35.07;;;;;;;6.50;97.61;100909.56;5069418;28;20649;-74
2022/02/04 03:35:32;;;;;;;61.67;34.00;;;;;;;6.50;96.98;100906.16;5068083;28;20681;-74
2022/02/04 03:37:58;;;;;;;57.00;33.40;;;;;;;6.51;96.77;100915.53;5069488;28;20169;-74
2022/02/04 03:40:25;;;;;;;59.40;35.27;;;;;;;6.51;97.12;100918.94;5069255;28;20208;-74
2022/02/04 03:42:51;;;;;;;57.67;34.30;;;;;;;6.52;96.96;100919.78;5069308;28;20237;-74
2022/02/04 03:45:17;;;;;;;59.30;33.43;;;;;;;6.54;96.58;100921.59;5069337;28;20197;-74
2022/02/04 03:47:43;;;;;;;61.10;34.07;;;;;;;6.52;96.82;100918.13;5069048;28;20217;-74
2022/02/04 03:50:09;;;;;;;60.83;33.97;;;;;;;6.57;96.83;100916.63;5067843;28;20216;-74
2022/02/04 03:52:37;;;;;;;59.93;34.03;;;;;;;6.56;96.79;100916.56;5067607;28;20193;-74
2022/02/04 03:55:03;;;;;;;59.57;34.17;;;;;;;6.57;97.25;100914.06;5069338;28;20204;-74
2022/02/04 03:57:28;;;;;;;58.53;33.80;;;;;;;6.57;96.68;100911.53;5069610;28;20572;-74
2022/02/04 03:59:54;;;;;;;59.43;34.87;;;;;;;6.57;97.03;100903.03;5069271;28;20238;-73
2022/02/04 04:02:19;;;;;;;62.93;34.30;;;;;;;6.54;96.84;100908.88;5069490;28;20189;-74
2022/02/04 04:04:44;;;;;;;57.50;33.67;;;;;;;6.60;96.65;100898.94;5068232;28;20274;-73
2022/02/04 04:07:10;;;;;;;61.17;35.43;;;;;;;6.56;97.05;100901.28;5068046;28;20232;-74
2022/02/04 04:09:39;;;;;;;61.73;34.67;;;;;;;6.58;96.35;100902.22;5069331;28;20197;-74
2022/02/04 04:12:05;;;;;;;57.57;35.07;;;;;;;6.58;97.08;100892.91;5067979;28;20193;-74
2022/02/04 04:14:30;;;;;;;62.20;35.50;;;;;;;6.57;96.45;100898.81;5067814;28;20189;-74
2022/02/04 04:16:55;;;;;;;57.73;32.63;;;;;;;6.58;96.54;100903.09;5050826;28;20563;-74
2022/02/04 04:19:21;;;;;;;58.63;35.10;;;;;;;6.58;96.98;100892.91;5067417;28;20594;-74
2022/02/04 04:21:46;;;;;;;53.93;32.27;;;;;;;6.61;96.19;100893.03;5068831;28;20188;-74
2022/02/04 04:24:12;;;;;;;59.60;33.43;;;;;;;6.61;95.58;100898.13;5068668;28;20189;-74
2022/02/04 04:26:38;;;;;;;55.67;34.43;;;;;;;6.62;96.04;100899.84;5068758;28;20227;-74
2022/02/04 04:29:04;;;;;;;63.10;35.47;;;;;;;6.61;95.96;100903.19;5071329;28;20200;-73
2022/02/04 04:31:29;;;;;;;59.33;35.23;;;;;;;6.63;95.27;100895.63;5072226;28;20209;-74
2022/02/04 04:33:54;;;;;;;61.97;34.63;;;;;;;6.61;95.37;100900.66;5072403;28;20689;-74
2022/02/04 04:36:21;;;;;;;61.07;33.40;;;;;;;6.63;95.69;100898.19;5072367;28;20628;-74
2022/02/04 04:39:14;;;;;;;54.97;33.17;;;;;;;6.63;95.19;100891.38;5070719;28;20187;-74
2022/02/04 04:44:34;;;;;;;58.30;34.87;;;;;;;6.59;95.85;100894.63;5070871;28;20208;-74
2022/02/04 05:31:00;;;;;;;45.13;27.50;;;;;;;6.59;94.14;100853.09;5062146;28;20749;-73
2022/02/04 05:33:25;;;;;;;46.40;27.90;;;;;;;6.58;93.90;100851.34;5069971;28;20220;-73
2022/02/04 05:35:50;;;;;;;46.90;27.77;;;;;;;6.56;94.21;100865.69;5069817;28;20286;-74
2022/02/04 05:38:17;;;;;;;47.17;28.60;;;;;;;6.54;94.09;100846.97;5069529;28;20682;-73
2022/02/04 05:40:45;;;;;;;45.77;28.90;;;;;;;6.54;93.58;100847.81;5069922;28;20694;-74
2022/02/04 05:43:21;;;;;;;44.63;27.17;;;;;;;6.57;93.68;100844.50;5071050;28;20187;-75
2022/02/04 05:46:04;;;;;;;45.37;27.40;;;;;;;6.56;93.76;100842.78;5070985;28;20654;-74
2022/02/04 05:48:32;;;;;;;44.67;26.57;;;;;;;6.56;93.45;100842.78;5069479;28;20271;-74
2022/02/04 05:53:46;;;;;;;41.97;24.27;;;;;;;6.56;92.47;100832.63;5070556;28;20253;-74
2022/02/04 05:58:57;;;;;;;43.00;27.10;;;;;;;6.54;92.30;100832.56;5070699;28;20197;-73
2022/02/04 06:01:32;;;;;;;41.97;25.60;;;;;;;6.55;92.82;100826.69;5069721;28;20644;-73
2022/02/04 06:09:53;;;;;;;39.77;24.43;;;;;;;6.53;93.37;100825.75;5070269;28;20192;-74
2022/02/04 06:22:53;;;;;;;40.23;24.47;;;;;;;6.52;92.75;100807.88;5070263;28;20166;-74
2022/02/04 06:25:19;;;;;;;40.40;24.90;;;;;;;6.52;92.69;100816.41;5070381;28;20688;-74
2022/02/04 06:27:45;;;;;;;39.77;24.93;;;;;;;6.53;92.58;100809.59;5070425;28;20214;-73
2022/02/04 06:30:12;;;;;;;38.63;24.43;;;;;;;6.54;93.02;100803.72;5070638;28;20220;-74
2022/02/04 06:32:37;;;;;;;47.37;26.43;;;;;;;6.50;92.93;100800.19;5068834;28;20180;-74
2022/02/04 06:35:07;;;;;;;41.67;25.63;;;;;;;6.48;93.21;100793.31;5070072;28;20272;-75
2022/02/04 06:37:33;;;;;;;41.07;26.47;;;;;;;6.47;93.33;100794.16;5068759;28;20204;-74
2022/02/04 06:39:58;;;;;;;41.37;26.37;;;;;;;6.48;93.07;100790.78;5069774;28;20278;-74
2022/02/04 06:42:26;;;;;;;42.53;26.40;;;;;;;6.47;93.59;100787.41;5069911;28;20264;-74
2022/02/04 06:44:52;;;;;;;44.90;26.83;;;;;;;6.48;93.04;100780.63;5070086;28;20181;-74
2022/02/04 06:47:17;;;;;;;43.03;26.27;;;;;;;6.48;93.03;100788.25;5068541;28;20212;-74
2022/02/04 06:49:45;;;;;;;43.80;26.20;;;;;;;6.50;92.77;100790.03;5069601;28;20212;-74
2022/02/04 06:52:11;;;;;;;43.70;26.77;;;;;;;6.55;93.29;100790.19;5069264;28;20696;-73
2022/02/04 06:54:37;;;;;;;45.30;28.10;;;;;;;6.55;93.42;100787.66;5069769;28;20177;-74
2022/02/04 06:57:02;;;;;;;49.00;28.83;;;;;;;6.55;93.35;100782.56;5069822;28;20184;-74
2022/02/04 06:59:28;;;;;;;45.17;28.20;;;;;;;6.52;93.35;100785.00;5069580;28;20205;-74
2022/02/04 07:01:54;;;;;;;45.40;28.10;;;;;;;6.54;93.44;100791.03;5070177;28;20307;-74
2022/02/04 07:04:19;;;;;;;43.13;26.63;;;;;;;6.54;93.43;100791.88;5068383;28;20613;-74
2022/02/04 07:06:53;;;;;;;42.90;28.00;;;;;;;6.56;93.87;100790.25;5068175;28;20205;-74
2022/02/04 07:09:25;;;;;;;47.20;28.60;;;;;;;6.54;92.85;100794.41;5068325;28;20192;-74
2022/02/04 07:14:49;;;;;;;47.53;27.97;;;;;;;6.59;92.93;100792.03;5069733;28;20185;-74
2022/02/04 07:19:46;;;;;;;44.83;28.50;;;;;;;6.61;93.87;100788.72;5067829;28;20240;-74
2022/02/04 07:22:14;;;;;;;43.50;27.03;;;;;;;6.67;92.03;100783.84;5069480;28;20177;-74
2022/02/04 07:24:39;;;;;;;42.70;27.47;;;;;;;6.66;92.94;100788.88;5069262;28;20712;-74
2022/02/04 07:27:05;;;;;;;46.23;28.33;;;;;;;6.66;92.53;100794.84;5069306;28;20208;-75
2022/02/04 07:29:30;;;;;;;40.80;28.00;;;;;;;6.65;93.51;100782.94;5069263;28;20209;-75
2022/02/04 07:31:56;;;;;;;47.27;28.40;;;;;;;6.71;93.17;100794.97;5069467;28;20204;-74
2022/02/04 07:34:38;;;;;;;43.03;27.10;;;;;;;6.72;92.82;100789.09;5068062;28;20189;-74
2022/02/04 07:42:31;;;;;;;43.10;28.00;;;;;;;6.77;92.84;100779.94;5069581;28;20181;-74
2022/02/04 07:44:56;;;;;;;44.00;29.00;;;;;;;6.79;92.58;100783.38;5068087;28;20323;-74
2022/02/04 07:47:21;;;;;;;45.50;28.70;;;;;;;6.80;93.15;100780.03;5069191;28;20215;-74
2022/02/04 07:49:47;;;;;;;45.63;30.00;;;;;;;6.84;92.72;100781.84;5068983;28;20314;-74
2022/02/04 07:52:12;;;;;;;42.57;27.10;;;;;;;6.86;92.07;100782.78;5068962;28;20196;-74
2022/02/04 07:54:37;;;;;;;45.23;27.00;;;;;;;6.88;92.59;100778.59;5069371;28;20175;-74
2022/02/04 07:57:03;;;;;;;43.30;27.60;;;;;;;6.86;93.42;100772.63;5068065;28;20212;-74
2022/02/04 07:59:28;;;;;;;46.97;29.03;;;;;;;6.87;92.16;100772.63;5069040;28;20625;-74
2022/02/04 08:01:53;;;;;;;45.53;29.33;;;;;;;6.94;93.01;100772.03;5069165;28;20165;-74
2022/02/04 08:04:23;;;;;;;46.53;28.70;;;;;;;6.99;92.58;100764.53;5072420;28;20185;-74
2022/02/04 08:06:56;;;;;;;48.83;29.97;;;;;;;6.98;92.25;100762.81;5071482;28;20212;-73
2022/02/04 08:17:34;;;;;;;44.53;29.23;;;;;;;7.01;92.39;100753.56;5072707;28;20256;-74
2022/02/04 08:28:44;;;;;;;45.43;30.17;;;;;;;7.05;92.21;100739.28;5072517;28;20203;-74
2022/02/04 08:39:18;;;;;;;46.23;30.70;;;;;;;7.16;91.93;100736.25;5072334;28;20181;-74
2022/02/04 08:55:07;;;;;;;46.73;31.07;;;;;;;7.33;91.43;100735.06;5049080;28;20201;-73
2022/02/04 08:57:48;;;;;;;49.77;31.97;;;;;;;7.33;92.11;100734.22;5072015;28;20593;-74
2022/02/04 09:00:33;;;;;;;44.77;30.20;;;;;;;7.34;92.17;100723.22;5071841;28;20209;-74
2022/02/04 09:03:03;;;;;;;44.00;30.53;;;;;;;7.37;91.61;100720.78;5071968;28;20230;-74
2022/02/04 09:05:40;;;;;;;45.63;31.17;;;;;;;7.38;91.78;100718.25;5070612;28;20661;-74
2022/02/04 09:08:22;;;;;;;46.77;30.93;;;;;;;7.41;91.29;100722.59;5071631;28;20218;-73
2022/02/04 09:10:49;;;;;;;42.17;29.33;;;;;;;7.46;91.65;100719.34;5071774;28;20682;-73
2022/02/04 09:18:52;;;;;;;42.40;29.77;;;;;;;7.52;91.45;100714.47;5069861;28;20169;-74
2022/02/04 09:21:37;;;;;;;41.37;28.63;;;;;;;7.58;90.66;100719.72;5070163;28;20251;-74
2022/02/04 09:24:02;;;;;;;37.07;26.77;;;;;;;7.61;90.38;100717.25;5071277;28;20193;-74
2022/02/04 09:26:27;;;;;;;39.50;28.93;;;;;;;7.66;90.04;100710.63;5070139;28;20220;-74
2022/02/04 09:28:53;;;;;;;38.73;28.00;;;;;;;7.73;90.07;100714.19;5070000;28;20188;-74
2022/02/04 09:31:18;;;;;;;40.27;28.23;;;;;;;7.76;90.03;100704.97;5071200;28;20205;-74
2022/02/04 09:33:43;;;;;;;38.70;29.30;;;;;;;7.78;88.95;100705.84;5071160;28;20188;-74
2022/02/04 09:36:09;;;;;;;34.67;26.10;;;;;;;7.80;89.65;100691.47;5069915;28;20185;-73
2022/02/04 09:38:34;;;;;;;36.90;28.27;;;;;;;7.85;88.92;100692.47;5069582;28;20192;-74
2022/02/04 09:40:59;;;;;;;37.37;27.60;;;;;;;7.86;88.98;100689.09;5071073;28;20201;-74
2022/02/04 09:43:26;;;;;;;37.27;27.53;;;;;;;7.89;89.08;100684.09;5053010;28;20242;-74
2022/02/04 09:45:52;;;;;;;37.67;27.97;;;;;;;7.90;88.42;100678.16;5071008;28;20189;-74
2022/02/04 09:48:17;;;;;;;36.03;27.17;;;;;;;7.93;89.03;100685.88;5070830;28;20189;-75
2022/02/04 09:50:47;;;;;;;36.73;28.47;;;;;;;7.97;88.40;100684.28;5070893;28;20197;-73
2022/02/04 10:15:28;;;;;;;32.60;23.83;;;;;;;8.23;88.06;100651.03;5069312;28;20189;-74
2022/02/04 10:18:01;;;;;;;31.47;24.83;;;;;;;8.27;86.09;100650.28;5069017;28;20181;-74
2022/02/04 10:20:27;;;;;;;31.67;24.87;;;;;;;8.28;86.73;100641.81;5070404;28;20212;-74
2022/02/04 10:22:52;;;;;;;32.33;24.93;;;;;;;8.31;87.17;100644.44;5070453;28;20189;-74
2022/02/04 10:25:17;;;;;;;30.27;25.30;;;;;;;8.30;86.07;100640.13;5068483;28;20200;-74
2022/02/04 10:27:46;;;;;;;32.60;24.53;;;;;;;8.30;86.24;100641.84;5070366;28;20220;-74
2022/02/04 10:30:14;;;;;;;28.73;22.80;;;;;;;8.29;87.06;100635.88;5070288;28;20251;-74
2022/02/04 10:32:50;;;;;;;30.50;24.63;;;;;;;8.30;86.43;100624.00;5070518;28;20170;-74
2022/02/04 10:35:20;;;;;;;26.20;21.60;;;;;;;8.33;85.56;100618.94;5070486;28;20599;-74
2022/02/04 10:38:10;;;;;;;30.53;24.17;;;;;;;8.38;86.02;100622.50;5070276;28;20556;-74
2022/02/04 10:40:58;;;;;;;32.53;25.30;;;;;;;8.42;85.24;100603.84;5070258;28;20213;-74
2022/02/04 10:46:23;;;;;;;27.20;23.23;;;;;;;8.54;84.70;100601.59;5069970;28;20185;-74
2022/02/04 10:49:10;;;;;;;27.97;21.60;;;;;;;8.59;84.59;100593.25;5068552;28;20238;-74
2022/02/04 10:51:58;;;;;;;24.63;20.57;;;;;;;8.57;85.00;100594.03;5068599;28;20177;-74
2022/02/04 11:02:36;;;;;;;23.00;20.40;;;;;;;8.84;84.07;100575.09;5069901;28;20238;-74
2022/02/04 11:05:10;;;;;;;24.90;21.27;;;;;;;8.89;83.81;100577.75;5069831;28;20180;-74
2022/02/04 11:08:04;;;;;;;23.70;20.40;;;;;;;9.00;83.22;100564.38;5069651;28;20251;-75
2022/02/04 11:21:59;;;;;;;23.63;20.57;;;;;;;9.22;81.22;100540.13;5069731;28;20178;-74
2022/02/04 11:33:44;;;;;;;18.03;16.13;;;;;;;9.76;78.81;100513.88;5069484;28;20223;-74
2022/02/04 11:35:38;;;;;;;19.83;16.47;;;;;;;10.04;77.71;100502.44;5067106;28;20203;-74
2022/02/04 11:52:48;;;;;;;14.23;12.80;;;;;;;10.18;75.29;100481.34;5073053;28;20223;-74
2022/02/04 11:55:13;;;;;;;14.93;13.37;;;;;;;10.21;74.87;100483.97;5073041;28;20189;-74
2022/02/04 11:57:52;;;;;;;13.87;12.50;;;;;;;10.56;74.32;100469.09;5073063;28;20180;-74
2022/02/04 12:00:18;;;;;;;15.23;13.63;;;;;;;10.17;75.83;100471.09;5071479;28;20219;-74
2022/02/04 12:02:51;;;;;;;14.63;13.00;;;;;;;10.11;76.21;100456.53;5073289;28;20271;-75
2022/02/04 12:05:16;;;;;;;14.43;13.03;;;;;;;10.12;74.73;100450.56;5071637;28;20650;-74
2022/02/04 12:07:55;;;;;;;13.13;11.87;;;;;;;10.42;73.66;100443.31;5072901;28;20231;-74
2022/02/04 12:10:39;;;;;;;13.53;11.77;;;;;;;10.03;75.07;100450.41;5071794;28;20299;-74
2022/02/04 12:13:14;;;;;;;12.37;11.37;;;;;;;10.09;75.61;100432.59;5071509;28;20216;-74
2022/02/04 12:15:46;;;;;;;14.37;12.87;;;;;;;9.91;76.42;100439.97;5071441;28;20209;-74
2022/02/04 12:18:14;;;;;;;13.17;11.87;;;;;;;10.05;75.70;100428.28;5072633;28;20177;-74
2022/02/04 12:20:56;;;;;;;12.60;11.10;;;;;;;9.82;76.14;100421.09;5071264;28;20240;-74
2022/02/04 12:23:27;;;;;;;13.37;12.03;;;;;;;10.04;75.42;100416.34;5070965;28;20177;-74
2022/02/04 12:25:58;;;;;;;13.47;12.03;;;;;;;10.62;74.60;100411.16;5072584;28;20192;-74
2022/02/04 12:28:43;;;;;;;11.80;9.53;;;;;;;10.63;72.36;100400.06;5072434;28;20200;-75
2022/02/04 12:31:14;;;;;;;11.07;9.53;;;;;;;11.38;69.36;100395.72;5071404;28;20201;-74
2022/02/04 12:34:18;;;;;;;10.00;8.37;;;;;;;12.01;65.90;100392.81;5071207;28;20235;-75
2022/02/04 12:36:50;;;;;;;9.53;8.63;;;;;;;10.47;71.93;100403.28;5060286;28;20250;-75
2022/02/04 12:39:18;;;;;;;10.10;9.10;;;;;;;10.07;74.87;100400.16;5072238;28;20276;-74
2022/02/04 12:42:15;;;;;;;12.67;9.67;;;;;;;9.78;75.36;100394.63;5054230;28;20219;-74
2022/02/04 12:44:42;;;;;;;12.20;8.97;;;;;;;9.60;76.26;100386.66;5051270;28;20211;-74
2022/02/04 12:47:14;;;;;;;10.37;8.60;;;;;;;9.59;76.44;100394.31;5071004;28;20752;-74
2022/02/04 12:49:53;;;;;;;9.80;8.90;;;;;;;9.52;76.51;100387.38;5069996;28;20258;-74
2022/02/04 12:52:30;;;;;;;9.50;8.50;;;;;;;9.45;76.97;100383.00;5071768;28;20200;-74
2022/02/04 12:55:08;;;;;;;10.63;9.50;;;;;;;9.40;77.79;100377.81;5072289;28;20581;-74
2022/02/04 12:57:56;;;;;;;10.20;7.93;;;;;;;9.30;76.83;100375.09;5070639;28;20296;-74
2022/02/04 13:00:36;;;;;;;8.67;7.77;;;;;;;9.29;77.33;100366.56;5071726;28;20304;-74
2022/02/04 13:03:10;;;;;;;9.33;7.20;;;;;;;9.32;77.83;100368.31;5053868;28;20181;-74
2022/02/04 13:11:12;;;;;;;8.23;7.43;;;;;;;9.47;77.43;100353.22;5071881;28;20689;-74
2022/02/04 13:13:46;;;;;;;7.97;7.03;;;;;;;9.39;77.82;100347.97;5070379;28;20668;-75
2022/02/04 13:16:27;;;;;;;7.93;6.63;;;;;;;9.35;78.08;100350.47;5071714;28;20220;-74
2022/02/04 13:18:54;;;;;;;7.73;7.03;;;;;;;9.24;78.55;100334.97;5070022;28;20200;-74
2022/02/04 13:21:20;;;;;;;7.60;6.80;;;;;;;9.27;79.09;100334.16;5071502;28;20243;-74
2022/02/04 13:23:46;;;;;;;7.93;6.77;;;;;;;9.24;78.69;100329.00;5069896;28;20224;-74
2022/02/04 13:26:12;;;;;;;7.70;6.33;;;;;;;9.20;78.78;100330.66;5071352;28;20228;-74
2022/02/04 13:28:40;;;;;;;9.20;6.57;;;;;;;9.23;78.64;100328.16;5069775;28;20654;-74
2022/02/04 13:31:13;;;;;;;7.87;5.93;;;;;;;9.24;78.87;100322.19;5069914;28;20599;-74
2022/02/04 13:33:39;;;;;;;6.77;6.07;;;;;;;9.23;79.11;100329.84;5070111;28;20192;-74
2022/02/04 13:39:07;;;;;;;8.67;5.83;;;;;;;9.21;78.05;100319.59;5071121;28;20164;-74
2022/02/04 13:41:51;;;;;;;7.83;5.83;;;;;;;9.22;78.93;100308.53;5071317;28;20213;-74
2022/02/04 13:44:36;;;;;;;8.70;6.13;;;;;;;9.28;78.76;100308.66;5070037;28;20234;-73
2022/02/04 13:53:16;;;;;;;6.30;4.87;;;;;;;9.24;78.22;100301.75;5070695;28;20185;-73
2022/02/04 13:55:29;;;;;;;4.83;4.33;;;;;;;9.24;78.11;100286.44;5063470;28;20232;-73
2022/02/04 13:58:31;;;;;;;5.30;4.57;;;;;;;9.22;77.42;100290.66;5070723;28;20283;-73
2022/02/04 14:03:34;;;;;;;4.80;4.40;;;;;;;9.19;77.90;100276.97;5071214;28;20180;-73
2022/02/04 14:06:16;;;;;;;5.93;4.33;;;;;;;9.13;78.45;100270.06;5069326;28;20197;-73
2022/02/04 14:11:14;;;;;;;5.13;4.63;;;;;;;9.11;79.01;100255.56;5070522;28;20251;-73
2022/02/04 14:13:39;;;;;;;4.50;4.07;;;;;;;9.09;78.93;100245.34;5069191;28;20282;-73
2022/02/04 14:16:07;;;;;;;4.20;3.90;;;;;;;9.12;78.88;100247.91;5069254;28;20284;-73
2022/02/04 14:18:35;;;;;;;5.07;4.27;;;;;;;9.14;79.10;100235.19;5070064;28;20191;-73
2022/02/04 14:21:09;;;;;;;4.90;4.00;;;;;;;9.14;77.37;100240.28;5050443;28;20574;-74
2022/02/04 14:23:34;;;;;;;4.47;3.73;;;;;;;9.18;77.47;100242.06;5046485;28;20280;-74
2022/02/04 14:26:19;;;;;;;5.40;3.97;;;;;;;9.18;77.28;100239.50;5045558;28;20277;-74
2022/02/04 14:28:55;;;;;;;4.37;3.90;;;;;;;9.21;77.07;100231.91;5046826;28;20190;-74
2022/02/04 14:31:37;;;;;;;3.83;3.53;;;;;;;9.21;77.35;100234.44;5045563;28;20212;-73
2022/02/04 14:50:35;;;;;;;3.50;2.87;;;;;;;9.10;76.91;100218.97;5046503;28;20255;-74
2022/02/04 14:53:06;;;;;;;3.63;3.23;;;;;;;9.09;77.37;100216.38;5044695;28;20194;-74
2022/02/04 15:01:18;;;;;;;3.70;3.40;;;;;;;9.00;78.55;100214.56;5046425;28;20218;-74
2022/02/04 15:04:00;;;;;;;3.57;3.30;;;;;;;8.91;78.49;100208.44;5046419;28;20211;-73
2022/02/04 15:06:40;;;;;;;4.30;3.57;;;;;;;8.90;79.18;100222.88;5045037;28;20197;-74
2022/02/04 15:09:09;;;;;;;3.40;3.10;;;;;;;8.88;79.33;100226.25;5045968;28;20572;-74
2022/02/04 15:11:36;;;;;;;3.10;2.90;;;;;;;8.84;79.82;100222.78;5046059;28;20209;-74
2022/02/04 15:14:05;;;;;;;4.67;3.40;;;;;;;8.84;79.87;100211.75;5028165;28;20715;-74
2022/02/04 15:16:32;;;;;;;3.10;2.90;;;;;;;8.77;79.80;100202.25;5046407;28;20193;-74
2022/02/04 15:18:57;;;;;;;3.77;3.30;;;;;;;8.75;80.96;100203.94;5045473;28;20186;-74
2022/02/04 15:21:23;;;;;;;3.83;3.53;;;;;;;8.69;80.63;100194.47;5028067;28;20275;-74
2022/02/04 15:23:52;;;;;;;3.67;3.37;;;;;;;8.64;81.14;100182.47;5044548;28;20186;-74
2022/02/04 15:26:20;;;;;;;3.07;2.77;;;;;;;8.64;80.06;100172.25;5045902;28;20174;-74
2022/02/04 15:29:01;;;;;;;3.40;3.10;;;;;;;8.61;80.49;100165.41;5045644;28;20236;-74
2022/02/04 15:31:35;;;;;;;4.93;3.40;;;;;;;8.56;80.65;100156.84;5038361;28;20239;-73
2022/02/04 15:34:01;;;;;;;3.40;3.20;;;;;;;8.56;81.19;100144.06;5032347;28;20198;-74
2022/02/04 15:36:35;;;;;;;3.47;3.13;;;;;;;8.53;81.66;100144.03;5031840;28;20210;-73
2022/02/04 15:39:06;;;;;;;3.80;3.50;;;;;;;8.48;81.05;100140.53;5032130;28;20213;-74
2022/02/04 15:41:33;;;;;;;3.50;3.20;;;;;;;8.45;81.73;100135.41;5032382;28;20206;-74
2022/02/04 15:44:03;;;;;;;4.10;3.70;;;;;;;8.46;82.01;100128.59;5032280;28;20190;-73
2022/02/04 16:00:29;;;;;;;5.30;4.53;;;;;;;8.21;84.66;100104.38;5031901;28;20268;-74
2022/02/04 16:05:42;;;;;;;9.03;6.23;;;;;;;8.11;85.25;100089.72;5032105;28;20189;-74
2022/02/04 16:08:11;;;;;;;6.80;6.30;;;;;;;8.11;85.63;100083.78;5031948;28;20198;-74
2022/02/04 16:10:58;;;;;;;7.20;6.50;;;;;;;8.09;86.16;100086.31;5031850;28;20252;-74
2022/02/04 16:13:34;;;;;;;7.97;7.33;;;;;;;8.10;85.87;100079.50;5031812;28;20175;-74
2022/02/04 16:16:25;;;;;;;7.07;6.47;;;;;;;8.07;85.54;100082.00;5030439;28;20190;-73
2022/02/04 16:19:08;;;;;;;6.80;6.20;;;;;;;8.07;85.81;100072.66;5014987;28;20218;-74
2022/02/04 16:24:19;;;;;;;6.13;5.63;;;;;;;8.05;85.90;100068.38;5030707;28;20253;-74
2022/02/04 16:26:56;;;;;;;5.87;5.27;;;;;;;8.08;84.08;100068.44;5029100;28;20543;-74
2022/02/04 16:29:22;;;;;;;6.00;5.50;;;;;;;8.11;83.89;100066.78;5029895;28;20184;-73
2022/02/04 16:31:48;;;;;;;5.63;4.80;;;;;;;8.08;84.54;100059.09;5030674;28;20600;-73
2022/02/04 16:34:15;;;;;;;5.43;4.60;;;;;;;8.04;84.67;100057.34;5027611;28;20225;-73
2022/02/04 16:36:44;;;;;;;4.80;4.40;;;;;;;8.05;83.96;100055.63;5036243;28;20213;-73
2022/02/04 16:39:11;;;;;;;4.10;3.70;;;;;;;8.05;84.60;100043.75;5031426;28;20298;-74
2022/02/04 16:41:49;;;;;;;3.97;3.37;;;;;;;8.04;83.69;100044.59;5031251;28;20190;-77
2022/02/04 16:44:14;;;;;;;3.50;3.20;;;;;;;7.97;84.34;100052.13;5030596;28;20197;-75
2022/02/04 16:46:40;;;;;;;3.17;2.87;;;;;;;7.97;84.65;100042.75;5032397;28;20937;-77
2022/02/04 16:49:06;;;;;;;4.37;2.90;;;;;;;8.00;83.11;100039.41;5015451;28;20190;-77
2022/02/04 16:51:31;;;;;;;3.17;2.53;;;;;;;8.00;83.13;100039.41;5031049;28;20241;-76
2022/02/04 16:53:56;;;;;;;3.10;2.87;;;;;;;8.02;83.32;100041.13;5031392;28;20208;-75
2022/02/04 16:56:22;;;;;;;3.87;2.60;;;;;;;8.02;82.94;100037.75;5046157;28;20593;-76
2022/02/04 16:58:47;;;;;;;2.90;2.70;;;;;;;8.04;82.98;100036.94;5030691;28;20762;-77
2022/02/04 17:01:18;;;;;;;3.30;3.00;;;;;;;8.02;83.15;100030.94;5031287;28;20301;-76